NV115 YSBK-YMEN
Flight info
| Callsign | NV115 |
|---|---|
| Flight time | 1h 0m |
| Altitude | 40000 |
| Route | BK DCT CB DCT DUBUS DCT TEMIS DCT COLDS DCT MONTY DCT ESDAN |
| Aircraft | C25B/M-SDE2E3FGHRWXY/LB1 |
Departure
| Time | 2026-05-04 06:33 |
|---|---|
| Airport | Sydney Bankstown Airport (YSBK) |
Arrival
| Time | 2026-05-04 07:34 |
|---|---|
| Airport | Melbourne Essendon Airport (YMEN) |
| Time | Latitude | Longitude | Altitude | Speed | Heading |
|---|---|---|---|---|---|
| 2026-05-04 06:25 | -33.91965 | 150.98934 | 22 ft | 0 kts | 136° |
| 2026-05-04 06:27 | -33.91966 | 150.98935 | 22 ft | 3 kts | 136° |
| 2026-05-04 06:28 | -33.91981 | 150.98980 | 22 ft | 7 kts | 96° |
| 2026-05-04 06:28 | -33.92012 | 150.99020 | 25 ft | 7 kts | 154° |
| 2026-05-04 06:28 | -33.92057 | 150.99054 | 25 ft | 8 kts | 124° |
| 2026-05-04 06:28 | -33.92052 | 150.99117 | 25 ft | 9 kts | 68° |
| 2026-05-04 06:29 | -33.92025 | 150.99190 | 24 ft | 10 kts | 66° |
| 2026-05-04 06:29 | -33.92013 | 150.99225 | 24 ft | 2 kts | 166° |
| 2026-05-04 06:29 | -33.92045 | 150.99127 | 24 ft | 20 kts | 253° |
| 2026-05-04 06:29 | -33.92132 | 150.99034 | 23 ft | 14 kts | 152° |
| 2026-05-04 06:30 | -33.92234 | 150.99202 | 27 ft | 30 kts | 124° |
| 2026-05-04 06:30 | -33.92347 | 150.99406 | 27 ft | 30 kts | 124° |
| 2026-05-04 06:30 | -33.92451 | 150.99591 | 33 ft | 16 kts | 141° |
| 2026-05-04 06:30 | -33.92482 | 150.99601 | 33 ft | 0 kts | 210° |
| 2026-05-04 06:31 | -33.92506 | 150.99582 | 33 ft | 13 kts | 224° |
| 2026-05-04 06:32 | -33.92453 | 150.99451 | 31 ft | 54 kts | 304° |
| 2026-05-04 06:33 | -33.86917 | 150.88858 | 8694 ft | 305 kts | 295° |
| 2026-05-04 06:34 | -33.86665 | 150.86105 | 8689 ft | 364 kts | 265° |
| 2026-05-04 06:34 | -33.87811 | 150.83394 | 10247 ft | 370 kts | 236° |
| 2026-05-04 06:34 | -33.89660 | 150.81156 | 11278 ft | 378 kts | 230° |
| 2026-05-04 06:34 | -33.91344 | 150.78949 | 13366 ft | 347 kts | 233° |
| 2026-05-04 06:35 | -33.92926 | 150.76912 | 15593 ft | 320 kts | 232° |
| 2026-05-04 06:36 | -34.03367 | 150.64694 | 25431 ft | 313 kts | 233° |
| 2026-05-04 06:37 | -34.04972 | 150.62889 | 26342 ft | 318 kts | 232° |
| 2026-05-04 06:37 | -34.06606 | 150.61051 | 27232 ft | 324 kts | 233° |
| 2026-05-04 06:37 | -34.08228 | 150.59135 | 27963 ft | 332 kts | 236° |
| 2026-05-04 06:37 | -34.09866 | 150.57019 | 27999 ft | 360 kts | 236° |
| 2026-05-04 06:38 | -34.11698 | 150.54788 | 28055 ft | 388 kts | 231° |
| 2026-05-04 06:38 | -34.13689 | 150.52726 | 29582 ft | 371 kts | 230° |
| 2026-05-04 06:40 | -34.26040 | 150.38554 | 34977 ft | 355 kts | 235° |
| 2026-05-04 06:40 | -34.27842 | 150.36492 | 35433 ft | 358 kts | 235° |
| 2026-05-04 06:40 | -34.29656 | 150.34415 | 35896 ft | 360 kts | 235° |
| 2026-05-04 06:40 | -34.31485 | 150.32330 | 36335 ft | 363 kts | 234° |
| 2026-05-04 06:41 | -34.33318 | 150.30219 | 36789 ft | 364 kts | 235° |
| 2026-05-04 06:41 | -34.35156 | 150.28100 | 37199 ft | 367 kts | 234° |
| 2026-05-04 06:41 | -34.37027 | 150.25960 | 37545 ft | 371 kts | 234° |
| 2026-05-04 06:41 | -34.38907 | 150.23801 | 37931 ft | 373 kts | 234° |
| 2026-05-04 06:42 | -34.40797 | 150.21636 | 38255 ft | 375 kts | 234° |
| 2026-05-04 06:42 | -34.42667 | 150.19470 | 38615 ft | 377 kts | 234° |
| 2026-05-04 06:42 | -34.44573 | 150.17272 | 38901 ft | 379 kts | 234° |
| 2026-05-04 06:44 | -34.58303 | 150.01419 | 39999 ft | 401 kts | 233° |
| 2026-05-04 06:44 | -34.62335 | 149.96763 | 40005 ft | 397 kts | 233° |
| 2026-05-04 06:45 | -34.66314 | 149.92139 | 40010 ft | 395 kts | 233° |
| 2026-05-04 06:45 | -34.70263 | 149.87558 | 40012 ft | 394 kts | 233° |
| 2026-05-04 06:46 | -34.74233 | 149.82932 | 40008 ft | 396 kts | 233° |
| 2026-05-04 06:46 | -34.78234 | 149.78275 | 40020 ft | 399 kts | 233° |
| 2026-05-04 06:48 | -34.94260 | 149.59540 | 40019 ft | 397 kts | 233° |
| 2026-05-04 06:50 | -35.10282 | 149.40705 | 40019 ft | 401 kts | 233° |
| 2026-05-04 06:51 | -35.14294 | 149.35966 | 40021 ft | 402 kts | 233° |
| 2026-05-04 06:51 | -35.17637 | 149.32021 | 40043 ft | 402 kts | 233° |
| 2026-05-04 06:52 | -35.22320 | 149.26478 | 40052 ft | 403 kts | 233° |
| 2026-05-04 06:52 | -35.25697 | 149.22477 | 40055 ft | 403 kts | 233° |
| 2026-05-04 06:53 | -35.29482 | 149.17549 | 40051 ft | 394 kts | 240° |
| 2026-05-04 06:53 | -35.32949 | 149.12318 | 40052 ft | 395 kts | 240° |
| 2026-05-04 06:54 | -35.36413 | 149.07075 | 40051 ft | 396 kts | 240° |
| 2026-05-04 06:54 | -35.39878 | 149.01818 | 40007 ft | 397 kts | 239° |
| 2026-05-04 06:55 | -35.43327 | 148.96588 | 40004 ft | 397 kts | 240° |
| 2026-05-04 06:55 | -35.46791 | 148.91320 | 40016 ft | 397 kts | 240° |
| 2026-05-04 06:57 | -35.60651 | 148.70174 | 40012 ft | 399 kts | 240° |
| 2026-05-04 06:58 | -35.64130 | 148.64841 | 40022 ft | 399 kts | 240° |
| 2026-05-04 06:58 | -35.67605 | 148.59507 | 40018 ft | 400 kts | 240° |
| 2026-05-04 06:59 | -35.71079 | 148.54169 | 40023 ft | 399 kts | 240° |
| 2026-05-04 06:59 | -35.74535 | 148.48849 | 40023 ft | 400 kts | 240° |
| 2026-05-04 07:01 | -35.88253 | 148.27190 | 40028 ft | 403 kts | 238° |
| 2026-05-04 07:02 | -35.91762 | 148.21885 | 40031 ft | 400 kts | 240° |
| 2026-05-04 07:02 | -35.95237 | 148.16501 | 40028 ft | 402 kts | 239° |
| 2026-05-04 07:03 | -35.98749 | 148.11131 | 40033 ft | 402 kts | 240° |
| 2026-05-04 07:03 | -36.02260 | 148.05704 | 40034 ft | 409 kts | 239° |
| 2026-05-04 07:04 | -36.05835 | 148.00207 | 40034 ft | 408 kts | 239° |
| 2026-05-04 07:04 | -36.09357 | 147.94763 | 40035 ft | 402 kts | 240° |
| 2026-05-04 07:05 | -36.12834 | 147.89384 | 40027 ft | 398 kts | 240° |
| 2026-05-04 07:05 | -36.16257 | 147.84070 | 40028 ft | 398 kts | 240° |
| 2026-05-04 07:06 | -36.21579 | 147.76022 | 40025 ft | 418 kts | 233° |
| 2026-05-04 07:06 | -36.23838 | 147.73660 | 40036 ft | 431 kts | 226° |
| 2026-05-04 07:07 | -36.26277 | 147.71455 | 40032 ft | 436 kts | 224° |
| 2026-05-04 07:08 | -36.43545 | 147.57267 | 40024 ft | 421 kts | 222° |
| 2026-05-04 07:09 | -36.46008 | 147.55251 | 40020 ft | 428 kts | 222° |
| 2026-05-04 07:09 | -36.51010 | 147.51133 | 40018 ft | 429 kts | 222° |
| 2026-05-04 07:10 | -36.55952 | 147.47065 | 40019 ft | 423 kts | 222° |
| 2026-05-04 07:12 | -36.71724 | 147.27536 | 40008 ft | 395 kts | 249° |
| 2026-05-04 07:12 | -36.74765 | 147.21778 | 40001 ft | 399 kts | 242° |
| 2026-05-04 07:13 | -36.77843 | 147.16068 | 39687 ft | 401 kts | 246° |
| 2026-05-04 07:13 | -36.79349 | 147.13094 | 39167 ft | 406 kts | 245° |
| 2026-05-04 07:13 | -36.80908 | 147.10192 | 38633 ft | 399 kts | 244° |
| 2026-05-04 07:14 | -36.86854 | 146.98912 | 36530 ft | 394 kts | 245° |
| 2026-05-04 07:14 | -36.88387 | 146.96020 | 36005 ft | 404 kts | 245° |
| 2026-05-04 07:15 | -36.89933 | 146.93101 | 35481 ft | 401 kts | 245° |
| 2026-05-04 07:15 | -36.91459 | 146.90191 | 34946 ft | 400 kts | 246° |
| 2026-05-04 07:15 | -36.92984 | 146.87268 | 34409 ft | 405 kts | 246° |
| 2026-05-04 07:15 | -36.94524 | 146.84334 | 33866 ft | 412 kts | 246° |
| 2026-05-04 07:16 | -36.96099 | 146.81335 | 33290 ft | 409 kts | 246° |
| 2026-05-04 07:16 | -36.97647 | 146.78385 | 32754 ft | 403 kts | 246° |
| 2026-05-04 07:16 | -36.99178 | 146.75470 | 32233 ft | 398 kts | 246° |
| 2026-05-04 07:16 | -37.00682 | 146.72577 | 31706 ft | 394 kts | 246° |
| 2026-05-04 07:17 | -37.02174 | 146.69707 | 31188 ft | 393 kts | 246° |
| 2026-05-04 07:17 | -37.03683 | 146.66812 | 30662 ft | 405 kts | 246° |
| 2026-05-04 07:17 | -37.05243 | 146.63810 | 30126 ft | 415 kts | 246° |
| 2026-05-04 07:17 | -37.06817 | 146.60801 | 29531 ft | 409 kts | 246° |
| 2026-05-04 07:18 | -37.08370 | 146.57846 | 28989 ft | 404 kts | 246° |
| 2026-05-04 07:18 | -37.09900 | 146.54873 | 28458 ft | 408 kts | 246° |
| 2026-05-04 07:18 | -37.11456 | 146.51850 | 27916 ft | 417 kts | 246° |
| 2026-05-04 07:18 | -37.13042 | 146.48818 | 27362 ft | 423 kts | 245° |
| 2026-05-04 07:19 | -37.14658 | 146.45703 | 26796 ft | 427 kts | 245° |
| 2026-05-04 07:19 | -37.16268 | 146.42592 | 26237 ft | 425 kts | 245° |
| 2026-05-04 07:19 | -37.17881 | 146.39468 | 25666 ft | 428 kts | 245° |
| 2026-05-04 07:19 | -37.19512 | 146.36340 | 25106 ft | 428 kts | 245° |
| 2026-05-04 07:20 | -37.21129 | 146.33195 | 24524 ft | 429 kts | 245° |
| 2026-05-04 07:20 | -37.22749 | 146.30047 | 23976 ft | 430 kts | 245° |
| 2026-05-04 07:20 | -37.24373 | 146.26889 | 23372 ft | 429 kts | 244° |
| 2026-05-04 07:20 | -37.26002 | 146.23756 | 22776 ft | 426 kts | 244° |
| 2026-05-04 07:22 | -37.37285 | 146.01734 | 18812 ft | 417 kts | 242° |
| 2026-05-04 07:22 | -37.38847 | 145.98710 | 18263 ft | 406 kts | 242° |
| 2026-05-04 07:23 | -37.40363 | 145.95740 | 17695 ft | 403 kts | 242° |
| 2026-05-04 07:23 | -37.41857 | 145.92796 | 17165 ft | 404 kts | 242° |
| 2026-05-04 07:23 | -37.43363 | 145.89824 | 16632 ft | 401 kts | 242° |
| 2026-05-04 07:23 | -37.44867 | 145.86883 | 16103 ft | 398 kts | 242° |
| 2026-05-04 07:24 | -37.46361 | 145.83966 | 15578 ft | 395 kts | 241° |
| 2026-05-04 07:24 | -37.47829 | 145.81062 | 15058 ft | 391 kts | 242° |
| 2026-05-04 07:24 | -37.49288 | 145.78184 | 14548 ft | 387 kts | 242° |
| 2026-05-04 07:24 | -37.50732 | 145.75330 | 14018 ft | 386 kts | 241° |
| 2026-05-04 07:25 | -37.52190 | 145.72494 | 13498 ft | 385 kts | 241° |
| 2026-05-04 07:26 | -37.62060 | 145.52924 | 9995 ft | 373 kts | 242° |
| 2026-05-04 07:27 | -37.63449 | 145.50189 | 9482 ft | 367 kts | 243° |
| 2026-05-04 07:27 | -37.64819 | 145.47488 | 8989 ft | 363 kts | 243° |
| 2026-05-04 07:27 | -37.66137 | 145.44835 | 8918 ft | 351 kts | 243° |
| 2026-05-04 07:27 | -37.67431 | 145.42269 | 8811 ft | 344 kts | 243° |
| 2026-05-04 07:28 | -37.68722 | 145.39688 | 8249 ft | 349 kts | 244° |
| 2026-05-04 07:28 | -37.69955 | 145.37099 | 7602 ft | 338 kts | 248° |
| 2026-05-04 07:28 | -37.70789 | 145.34353 | 6972 ft | 334 kts | 258° |
| 2026-05-04 07:28 | -37.71292 | 145.31519 | 6363 ft | 328 kts | 268° |
| 2026-05-04 07:29 | -37.71466 | 145.28670 | 5809 ft | 323 kts | 271° |
| 2026-05-04 07:29 | -37.71652 | 145.25857 | 5381 ft | 318 kts | 270° |
| 2026-05-04 07:29 | -37.71828 | 145.23083 | 4954 ft | 316 kts | 270° |
| 2026-05-04 07:29 | -37.71982 | 145.20335 | 4532 ft | 311 kts | 271° |
| 2026-05-04 07:30 | -37.72140 | 145.17640 | 4126 ft | 304 kts | 271° |
| 2026-05-04 07:30 | -37.72304 | 145.15003 | 3734 ft | 299 kts | 271° |
| 2026-05-04 07:30 | -37.72456 | 145.12427 | 3341 ft | 297 kts | 271° |
| 2026-05-04 07:30 | -37.72571 | 145.09834 | 2952 ft | 292 kts | 275° |
| 2026-05-04 07:31 | -37.72635 | 145.07342 | 2780 ft | 282 kts | 273° |
| 2026-05-04 07:31 | -37.72761 | 145.04879 | 2388 ft | 277 kts | 273° |
| 2026-05-04 07:33 | -37.73026 | 144.93905 | 661 ft | 110 kts | 282° |
| 2026-05-04 07:33 | -37.73047 | 144.92944 | 528 ft | 109 kts | 275° |
| 2026-05-04 07:33 | -37.73072 | 144.91970 | 395 ft | 109 kts | 277° |
| 2026-05-04 07:33 | -37.73089 | 144.91086 | 248 ft | 88 kts | 271° |
| 2026-05-04 07:34 | -37.73031 | 144.90590 | 252 ft | 33 kts | 274° |
| 2026-05-04 07:34 | -37.73107 | 144.90207 | 258 ft | 50 kts | 269° |
| 2026-05-04 07:34 | -37.73073 | 144.90006 | 256 ft | 11 kts | 352° |
| 2026-05-04 07:34 | -37.72964 | 144.89999 | 259 ft | 22 kts | 359° |
| 2026-05-04 07:35 | -37.72889 | 144.89909 | 260 ft | 20 kts | 283° |
| 2026-05-04 07:35 | -37.72860 | 144.89859 | 260 ft | 0 kts | 3° |